sensor_id;sensor_type;location;lat;lon;timestamp;pressure;altitude;pressure_sealevel;temperature;humidity
60845;BME280;47984;51.250;6.712;2022-11-20T00:01:30;101063.78;;;-0.35;58.78
60845;BME280;47984;51.250;6.712;2022-11-20T00:03:58;101063.78;;;-0.35;58.44
60845;BME280;47984;51.250;6.712;2022-11-20T00:06:26;101058.72;;;-0.33;58.79
60845;BME280;47984;51.250;6.712;2022-11-20T00:08:55;101062.97;;;-0.32;58.67
60845;BME280;47984;51.250;6.712;2022-11-20T00:11:25;101055.31;;;-0.32;58.75
60845;BME280;47984;51.250;6.712;2022-11-20T00:13:56;101063.84;;;-0.32;58.28
60845;BME280;47984;51.250;6.712;2022-11-20T00:16:25;101064.75;;;-0.30;59.05
60845;BME280;47984;51.250;6.712;2022-11-20T00:18:53;101064.69;;;-0.31;59.23
60845;BME280;47984;51.250;6.712;2022-11-20T00:21:25;101062.19;;;-0.30;59.02
60845;BME280;47984;51.250;6.712;2022-11-20T00:23:55;101061.34;;;-0.29;58.46
60845;BME280;47984;51.250;6.712;2022-11-20T00:26:23;101060.50;;;-0.28;58.44
60845;BME280;47984;51.250;6.712;2022-11-20T00:28:55;101057.94;;;-0.28;58.55
60845;BME280;47984;51.250;6.712;2022-11-20T00:31:22;101067.38;;;-0.27;58.42
60845;BME280;47984;51.250;6.712;2022-11-20T00:33:50;101058.00;;;-0.26;58.86
60845;BME280;47984;51.250;6.712;2022-11-20T00:36:19;101057.16;;;-0.25;58.78
60845;BME280;47984;51.250;6.712;2022-11-20T00:38:50;101057.19;;;-0.24;58.42
60845;BME280;47984;51.250;6.712;2022-11-20T00:41:17;101052.94;;;-0.23;59.07
60845;BME280;47984;51.250;6.712;2022-11-20T00:43:44;101054.66;;;-0.22;58.28
60845;BME280;47984;51.250;6.712;2022-11-20T00:46:16;101053.75;;;-0.24;58.91
60845;BME280;47984;51.250;6.712;2022-11-20T00:48:45;101045.28;;;-0.22;58.70
60845;BME280;47984;51.250;6.712;2022-11-20T00:51:20;101047.00;;;-0.22;58.56
60845;BME280;47984;51.250;6.712;2022-11-20T00:53:48;101049.59;;;-0.20;58.47
60845;BME280;47984;51.250;6.712;2022-11-20T00:56:17;101052.16;;;-0.20;58.98
60845;BME280;47984;51.250;6.712;2022-11-20T00:58:46;101049.59;;;-0.19;58.67
60845;BME280;47984;51.250;6.712;2022-11-20T01:01:19;101048.75;;;-0.19;57.99
60845;BME280;47984;51.250;6.712;2022-11-20T01:03:49;101042.78;;;-0.20;59.00
60845;BME280;47984;51.250;6.712;2022-11-20T01:06:29;101044.50;;;-0.19;58.32
60845;BME280;47984;51.250;6.712;2022-11-20T01:08:59;101035.97;;;-0.19;58.62
60845;BME280;47984;51.250;6.712;2022-11-20T01:11:29;101039.44;;;-0.17;58.58
60845;BME280;47984;51.250;6.712;2022-11-20T01:13:57;101036.81;;;-0.20;59.02
60845;BME280;47984;51.250;6.712;2022-11-20T01:18:56;101035.94;;;-0.21;58.77
60845;BME280;47984;51.250;6.712;2022-11-20T01:21:29;101030.81;;;-0.21;58.56
60845;BME280;47984;51.250;6.712;2022-11-20T01:23:56;101030.00;;;-0.20;58.81
60845;BME280;47984;51.250;6.712;2022-11-20T01:26:26;101045.34;;;-0.18;58.47
60845;BME280;47984;51.250;6.712;2022-11-20T01:28:53;101039.38;;;-0.19;58.92
60845;BME280;47984;51.250;6.712;2022-11-20T01:31:22;101035.97;;;-0.19;58.64
60845;BME280;47984;51.250;6.712;2022-11-20T01:33:51;101040.25;;;-0.18;59.00
60845;BME280;47984;51.250;6.712;2022-11-20T01:36:20;101035.13;;;-0.18;58.70
60845;BME280;47984;51.250;6.712;2022-11-20T01:38:51;101026.59;;;-0.19;58.79
60845;BME280;47984;51.250;6.712;2022-11-20T01:41:18;101041.09;;;-0.18;58.33
60845;BME280;47984;51.250;6.712;2022-11-20T01:44:04;101035.16;;;-0.17;59.05
60845;BME280;47984;51.250;6.712;2022-11-20T01:46:34;101033.44;;;-0.18;59.08
60845;BME280;47984;51.250;6.712;2022-11-20T01:49:15;101025.75;;;-0.18;58.80
60845;BME280;47984;51.250;6.712;2022-11-20T01:51:58;101032.63;;;-0.17;58.73
60845;BME280;47984;51.250;6.712;2022-11-20T01:54:39;101025.81;;;-0.16;58.67
60845;BME280;47984;51.250;6.712;2022-11-20T01:57:10;101017.28;;;-0.17;59.12
60845;BME280;47984;51.250;6.712;2022-11-20T01:59:44;101019.84;;;-0.17;58.71
60845;BME280;47984;51.250;6.712;2022-11-20T02:02:11;101019.84;;;-0.15;58.96
60845;BME280;47984;51.250;6.712;2022-11-20T02:04:38;101018.19;;;-0.13;59.11
60845;BME280;47984;51.250;6.712;2022-11-20T02:07:05;101013.09;;;-0.13;58.62
60845;BME280;47984;51.250;6.712;2022-11-20T02:09:32;101008.81;;;-0.13;58.90
60845;BME280;47984;51.250;6.712;2022-11-20T02:12:00;101000.31;;;-0.12;58.94
60845;BME280;47984;51.250;6.712;2022-11-20T02:14:28;100996.88;;;-0.14;58.37
60845;BME280;47984;51.250;6.712;2022-11-20T02:16:55;100991.78;;;-0.12;58.38
60845;BME280;47984;51.250;6.712;2022-11-20T02:19:26;101001.19;;;-0.11;58.73
60845;BME280;47984;51.250;6.712;2022-11-20T02:22:20;100988.41;;;-0.11;59.00
60845;BME280;47984;51.250;6.712;2022-11-20T02:24:50;100990.97;;;-0.11;58.41
60845;BME280;47984;51.250;6.712;2022-11-20T02:27:18;100991.78;;;-0.12;58.60
60845;BME280;47984;51.250;6.712;2022-11-20T02:29:51;100985.88;;;-0.11;58.98
60845;BME280;47984;51.250;6.712;2022-11-20T02:32:21;100980.75;;;-0.11;58.81
60845;BME280;47984;51.250;6.712;2022-11-20T02:34:48;100981.59;;;-0.11;58.34
60845;BME280;47984;51.250;6.712;2022-11-20T02:37:15;100988.41;;;-0.11;58.68
60845;BME280;47984;51.250;6.712;2022-11-20T02:39:44;100982.47;;;-0.10;58.51
60845;BME280;47984;51.250;6.712;2022-11-20T02:42:12;100987.56;;;-0.10;58.39
60845;BME280;47984;51.250;6.712;2022-11-20T02:44:39;100979.91;;;-0.10;59.15
60845;BME280;47984;51.250;6.712;2022-11-20T02:47:06;100981.66;;;-0.08;58.82
60845;BME280;47984;51.250;6.712;2022-11-20T02:49:34;100985.03;;;-0.09;58.37
60845;BME280;47984;51.250;6.712;2022-11-20T02:52:00;100982.56;;;-0.07;58.83
60845;BME280;47984;51.250;6.712;2022-11-20T02:54:27;100980.00;;;-0.06;59.24
60845;BME280;47984;51.250;6.712;2022-11-20T02:56:54;100979.16;;;-0.06;58.52
60845;BME280;47984;51.250;6.712;2022-11-20T02:59:21;100985.09;;;-0.07;58.28
60845;BME280;47984;51.250;6.712;2022-11-20T03:01:48;100973.19;;;-0.07;58.62
60845;BME280;47984;51.250;6.712;2022-11-20T03:04:15;100988.53;;;-0.07;58.49
60845;BME280;47984;51.250;6.712;2022-11-20T03:06:42;100986.81;;;-0.06;58.99
60845;BME280;47984;51.250;6.712;2022-11-20T03:09:09;100980.81;;;-0.08;58.47
60845;BME280;47984;51.250;6.712;2022-11-20T03:11:36;100981.66;;;-0.08;58.85
60845;BME280;47984;51.250;6.712;2022-11-20T03:14:04;100980.81;;;-0.08;58.16
60845;BME280;47984;51.250;6.712;2022-11-20T03:16:31;100972.25;;;-0.10;58.50
60845;BME280;47984;51.250;6.712;2022-11-20T03:18:59;100972.19;;;-0.12;58.57
60845;BME280;47984;51.250;6.712;2022-11-20T03:21:26;100985.81;;;-0.13;58.30
60845;BME280;47984;51.250;6.712;2022-11-20T03:23:53;100984.06;;;-0.15;58.25
60845;BME280;47984;51.250;6.712;2022-11-20T03:26:24;100976.34;;;-0.18;58.66
60845;BME280;47984;51.250;6.712;2022-11-20T03:28:57;100984.81;;;-0.21;59.07
60845;BME280;47984;51.250;6.712;2022-11-20T03:31:27;100985.66;;;-0.22;58.78
60845;BME280;47984;51.250;6.712;2022-11-20T03:33:55;100978.75;;;-0.26;58.87
60845;BME280;47984;51.250;6.712;2022-11-20T03:36:22;100986.38;;;-0.29;59.13
60845;BME280;47984;51.250;6.712;2022-11-20T03:38:49;100971.03;;;-0.29;58.45
60845;BME280;47984;51.250;6.712;2022-11-20T03:41:21;100975.28;;;-0.30;58.97
60845;BME280;47984;51.250;6.712;2022-11-20T03:43:53;100976.09;;;-0.32;58.66
60845;BME280;47984;51.250;6.712;2022-11-20T03:46:20;100975.19;;;-0.36;58.67
60845;BME280;47984;51.250;6.712;2022-11-20T03:48:48;100973.41;;;-0.38;59.03
60845;BME280;47984;51.250;6.712;2022-11-20T03:51:20;100978.41;;;-0.43;58.82
60845;BME280;47984;51.250;6.712;2022-11-20T03:53:48;100979.25;;;-0.46;58.92
60845;BME280;47984;51.250;6.712;2022-11-20T03:56:17;100980.91;;;-0.48;58.68
60845;BME280;47984;51.250;6.712;2022-11-20T03:58:45;100991.19;;;-0.45;58.47
60845;BME280;47984;51.250;6.712;2022-11-20T04:01:15;100984.38;;;-0.44;59.13
60845;BME280;47984;51.250;6.712;2022-11-20T04:03:44;100983.47;;;-0.46;58.88
60845;BME280;47984;51.250;6.712;2022-11-20T04:06:15;100979.25;;;-0.44;58.30
60845;BME280;47984;51.250;6.712;2022-11-20T04:08:42;100974.16;;;-0.44;58.68
60845;BME280;47984;51.250;6.712;2022-11-20T04:11:10;100969.91;;;-0.43;58.70
60845;BME280;47984;51.250;6.712;2022-11-20T04:13:37;100967.34;;;-0.43;59.15
60845;BME280;47984;51.250;6.712;2022-11-20T04:16:05;100978.41;;;-0.43;58.44
60845;BME280;47984;51.250;6.712;2022-11-20T04:18:35;100973.31;;;-0.43;58.58
60845;BME280;47984;51.250;6.712;2022-11-20T04:21:03;100985.28;;;-0.42;58.71
60845;BME280;47984;51.250;6.712;2022-11-20T04:23:30;100970.75;;;-0.45;58.42
60845;BME280;47984;51.250;6.712;2022-11-20T04:26:04;100985.28;;;-0.42;58.30
60845;BME280;47984;51.250;6.712;2022-11-20T04:28:32;100977.59;;;-0.42;58.65
60845;BME280;47984;51.250;6.712;2022-11-20T04:31:19;100970.75;;;-0.45;58.66
60845;BME280;47984;51.250;6.712;2022-11-20T04:33:47;100973.31;;;-0.43;58.27
60845;BME280;47984;51.250;6.712;2022-11-20T04:36:19;100974.19;;;-0.42;58.46
60845;BME280;47984;51.250;6.712;2022-11-20T04:38:50;100975.00;;;-0.45;58.63
60845;BME280;47984;51.250;6.712;2022-11-20T04:41:24;100969.88;;;-0.45;58.44
60845;BME280;47984;51.250;6.712;2022-11-20T04:43:54;100975.81;;;-0.46;58.91
60845;BME280;47984;51.250;6.712;2022-11-20T04:46:27;100974.94;;;-0.48;58.64
60845;BME280;47984;51.250;6.712;2022-11-20T04:48:54;100975.78;;;-0.48;59.09
60845;BME280;47984;51.250;6.712;2022-11-20T04:51:21;100966.44;;;-0.47;58.60
60845;BME280;47984;51.250;6.712;2022-11-20T04:53:48;100973.25;;;-0.46;58.62
60845;BME280;47984;51.250;6.712;2022-11-20T04:56:15;100978.34;;;-0.46;59.09
60845;BME280;47984;51.250;6.712;2022-11-20T04:58:42;100974.09;;;-0.47;58.18
60845;BME280;47984;51.250;6.712;2022-11-20T05:01:14;100972.38;;;-0.48;58.47
60845;BME280;47984;51.250;6.712;2022-11-20T05:03:41;100968.13;;;-0.48;58.87
60845;BME280;47984;51.250;6.712;2022-11-20T05:06:11;100968.09;;;-0.49;58.85
60845;BME280;47984;51.250;6.712;2022-11-20T05:08:38;100968.13;;;-0.48;58.91
60845;BME280;47984;51.250;6.712;2022-11-20T05:11:11;100974.09;;;-0.47;59.08
60845;BME280;47984;51.250;6.712;2022-11-20T05:13:38;100976.66;;;-0.47;58.25
60845;BME280;47984;51.250;6.712;2022-11-20T05:16:10;100974.94;;;-0.48;58.58
60845;BME280;47984;51.250;6.712;2022-11-20T05:18:39;100979.19;;;-0.47;59.05
60845;BME280;47984;51.250;6.712;2022-11-20T05:21:07;100968.13;;;-0.48;59.08
60845;BME280;47984;51.250;6.712;2022-11-20T05:23:35;100972.38;;;-0.48;58.87
60845;BME280;47984;51.250;6.712;2022-11-20T05:26:02;100971.53;;;-0.49;58.62
60845;BME280;47984;51.250;6.712;2022-11-20T05:28:30;100969.81;;;-0.48;58.94
60845;BME280;47984;51.250;6.712;2022-11-20T05:31:09;100962.97;;;-0.49;58.32
60845;BME280;47984;51.250;6.712;2022-11-20T05:33:36;100969.81;;;-0.48;58.63
60845;BME280;47984;51.250;6.712;2022-11-20T05:36:04;100965.53;;;-0.49;59.12
60845;BME280;47984;51.250;6.712;2022-11-20T05:38:31;100968.09;;;-0.49;59.10
60845;BME280;47984;51.250;6.712;2022-11-20T05:41:06;100962.97;;;-0.51;58.75
60845;BME280;47984;51.250;6.712;2022-11-20T05:43:34;100962.97;;;-0.51;59.07
60845;BME280;47984;51.250;6.712;2022-11-20T05:46:03;100969.78;;;-0.50;59.02
60845;BME280;47984;51.250;6.712;2022-11-20T05:48:31;100962.09;;;-0.51;59.08
60845;BME280;47984;51.250;6.712;2022-11-20T05:50:59;100962.09;;;-0.51;59.02
60845;BME280;47984;51.250;6.712;2022-11-20T05:53:27;100959.53;;;-0.51;59.19
60845;BME280;47984;51.250;6.712;2022-11-20T05:56:05;100956.09;;;-0.53;58.50
60845;BME280;47984;51.250;6.712;2022-11-20T05:58:33;100959.50;;;-0.53;59.04
60845;BME280;47984;51.250;6.712;2022-11-20T06:01:13;100963.75;;;-0.53;58.56
60845;BME280;47984;51.250;6.712;2022-11-20T06:03:42;100966.34;;;-0.52;58.60
60845;BME280;47984;51.250;6.712;2022-11-20T06:06:10;100960.34;;;-0.52;58.76
60845;BME280;47984;51.250;6.712;2022-11-20T06:08:37;100961.25;;;-0.52;58.43
60845;BME280;47984;51.250;6.712;2022-11-20T06:11:05;100962.97;;;-0.51;58.67
60845;BME280;47984;51.250;6.712;2022-11-20T06:13:32;100951.03;;;-0.52;58.71
60845;BME280;47984;51.250;6.712;2022-11-20T06:16:06;100950.97;;;-0.53;58.82
60845;BME280;47984;51.250;6.712;2022-11-20T06:18:33;100953.53;;;-0.53;59.25
60845;BME280;47984;51.250;6.712;2022-11-20T06:21:10;100960.41;;;-0.49;58.40
60845;BME280;47984;51.250;6.712;2022-11-20T06:23:38;100962.13;;;-0.50;59.12
60845;BME280;47984;51.250;6.712;2022-11-20T06:26:09;100962.13;;;-0.50;58.22
60845;BME280;47984;51.250;6.712;2022-11-20T06:28:36;100962.97;;;-0.49;59.05
60845;BME280;47984;51.250;6.712;2022-11-20T06:31:04;100962.97;;;-0.49;58.97
60845;BME280;47984;51.250;6.712;2022-11-20T06:33:31;100962.97;;;-0.49;58.44
60845;BME280;47984;51.250;6.712;2022-11-20T06:36:00;100962.13;;;-0.50;58.50
60845;BME280;47984;51.250;6.712;2022-11-20T06:38:36;100957.81;;;-0.52;58.53
60845;BME280;47984;51.250;6.712;2022-11-20T06:41:04;100973.25;;;-0.48;58.54
60845;BME280;47984;51.250;6.712;2022-11-20T06:43:31;100971.53;;;-0.47;59.02
60845;BME280;47984;51.250;6.712;2022-11-20T06:45:59;100978.34;;;-0.46;58.82
60845;BME280;47984;51.250;6.712;2022-11-20T06:48:27;100969.88;;;-0.45;58.80
60845;BME280;47984;51.250;6.712;2022-11-20T06:50:55;100975.84;;;-0.45;58.76
60845;BME280;47984;51.250;6.712;2022-11-20T06:53:23;100969.03;;;-0.44;59.25
60845;BME280;47984;51.250;6.712;2022-11-20T06:55:51;100972.44;;;-0.43;59.24
60845;BME280;47984;51.250;6.712;2022-11-20T06:58:18;100968.19;;;-0.43;58.91
60845;BME280;47984;51.250;6.712;2022-11-20T07:00:45;100968.13;;;-0.46;58.79
60845;BME280;47984;51.250;6.712;2022-11-20T07:03:12;100980.16;;;-0.42;58.79
60845;BME280;47984;51.250;6.712;2022-11-20T07:05:40;100986.13;;;-0.41;58.65
60845;BME280;47984;51.250;6.712;2022-11-20T07:08:07;100981.81;;;-0.44;58.60
60845;BME280;47984;51.250;6.712;2022-11-20T07:10:34;100988.63;;;-0.43;58.62
60845;BME280;47984;51.250;6.712;2022-11-20T07:13:01;100986.03;;;-0.46;58.58
60845;BME280;47984;51.250;6.712;2022-11-20T07:15:28;100993.75;;;-0.45;58.33
60845;BME280;47984;51.250;6.712;2022-11-20T07:17:58;100992.88;;;-0.45;58.61
60845;BME280;47984;51.250;6.712;2022-11-20T07:20:25;100992.03;;;-0.44;59.04
60845;BME280;47984;51.250;6.712;2022-11-20T07:22:54;100985.22;;;-0.43;58.53
60845;BME280;47984;51.250;6.712;2022-11-20T07:25:22;100985.22;;;-0.43;58.59
60845;BME280;47984;51.250;6.712;2022-11-20T07:27:49;100987.78;;;-0.45;58.49
60845;BME280;47984;51.250;6.712;2022-11-20T07:30:17;100993.75;;;-0.43;59.04
60845;BME280;47984;51.250;6.712;2022-11-20T07:32:50;100998.84;;;-0.45;58.49
60845;BME280;47984;51.250;6.712;2022-11-20T07:35:18;100989.41;;;-0.47;58.66
60845;BME280;47984;51.250;6.712;2022-11-20T07:37:44;100995.38;;;-0.47;59.07
60845;BME280;47984;51.250;6.712;2022-11-20T07:40:16;100984.34;;;-0.46;58.72
60845;BME280;47984;51.250;6.712;2022-11-20T07:42:51;100982.63;;;-0.47;59.09
60845;BME280;47984;51.250;6.712;2022-11-20T07:45:19;100986.00;;;-0.48;58.82
60845;BME280;47984;51.250;6.712;2022-11-20T07:47:46;100974.09;;;-0.47;58.94
60845;BME280;47984;51.250;6.712;2022-11-20T07:50:13;100976.69;;;-0.46;58.94
60845;BME280;47984;51.250;6.712;2022-11-20T07:52:41;100971.53;;;-0.49;59.21
60845;BME280;47984;51.250;6.712;2022-11-20T07:55:09;100978.34;;;-0.46;58.58
60845;BME280;47984;51.250;6.712;2022-11-20T07:57:36;100975.78;;;-0.48;58.86
60845;BME280;47984;51.250;6.712;2022-11-20T08:00:05;100980.97;;;-0.45;59.17
60845;BME280;47984;51.250;6.712;2022-11-20T08:02:32;100975.00;;;-0.45;59.25
60845;BME280;47984;51.250;6.712;2022-11-20T08:04:59;100982.69;;;-0.43;58.58
60845;BME280;47984;51.250;6.712;2022-11-20T08:07:26;100974.19;;;-0.42;59.20
60845;BME280;47984;51.250;6.712;2022-11-20T08:09:53;100971.66;;;-0.42;58.80
60845;BME280;47984;51.250;6.712;2022-11-20T08:12:20;100960.59;;;-0.41;59.12
60845;BME280;47984;51.250;6.712;2022-11-20T08:15:07;100964.00;;;-0.41;59.06
60845;BME280;47984;51.250;6.712;2022-11-20T08:17:39;100964.03;;;-0.39;59.31
60845;BME280;47984;51.250;6.712;2022-11-20T08:20:06;100966.59;;;-0.38;59.02
60845;BME280;47984;51.250;6.712;2022-11-20T08:22:34;100970.88;;;-0.37;59.17
60845;BME280;47984;51.250;6.712;2022-11-20T08:25:01;100974.31;;;-0.36;59.18
60845;BME280;47984;51.250;6.712;2022-11-20T08:27:28;100974.34;;;-0.35;59.08
60845;BME280;47984;51.250;6.712;2022-11-20T08:29:55;100970.06;;;-0.34;59.41
60845;BME280;47984;51.250;6.712;2022-11-20T08:32:22;100967.56;;;-0.33;58.73
60845;BME280;47984;51.250;6.712;2022-11-20T08:34:49;100970.13;;;-0.31;58.61
60845;BME280;47984;51.250;6.712;2022-11-20T08:37:16;100972.75;;;-0.30;59.00
60845;BME280;47984;51.250;6.712;2022-11-20T08:39:43;100980.41;;;-0.30;58.93
60845;BME280;47984;51.250;6.712;2022-11-20T08:42:10;100977.06;;;-0.26;58.91
60845;BME280;47984;51.250;6.712;2022-11-20T08:44:37;100977.06;;;-0.26;58.82
60845;BME280;47984;51.250;6.712;2022-11-20T08:47:03;100963.44;;;-0.25;58.82
60845;BME280;47984;51.250;6.712;2022-11-20T08:49:30;100969.44;;;-0.23;58.48
60845;BME280;47984;51.250;6.712;2022-11-20T08:51:57;100964.28;;;-0.24;59.41
60845;BME280;47984;51.250;6.712;2022-11-20T08:54:24;100976.28;;;-0.22;58.96
60845;BME280;47984;51.250;6.712;2022-11-20T08:56:51;100983.19;;;-0.17;59.02
60845;BME280;47984;51.250;6.712;2022-11-20T08:59:18;100990.88;;;-0.17;59.13
60845;BME280;47984;51.250;6.712;2022-11-20T09:02:05;100982.34;;;-0.15;58.99
60845;BME280;47984;51.250;6.712;2022-11-20T09:04:32;100979.84;;;-0.13;59.13
60845;BME280;47984;51.250;6.712;2022-11-20T09:06:59;100969.63;;;-0.12;58.78
60845;BME280;47984;51.250;6.712;2022-11-20T09:09:26;100965.41;;;-0.11;58.70
60845;BME280;47984;51.250;6.712;2022-11-20T09:11:53;100972.25;;;-0.10;59.06
60845;BME280;47984;51.250;6.712;2022-11-20T09:14:20;100962.91;;;-0.08;59.23
60845;BME280;47984;51.250;6.712;2022-11-20T09:16:48;100962.09;;;-0.07;59.30
60845;BME280;47984;51.250;6.712;2022-11-20T09:19:14;100952.72;;;-0.07;59.44
60845;BME280;47984;51.250;6.712;2022-11-20T09:22:02;100941.66;;;-0.07;59.57
60845;BME280;47984;51.250;6.712;2022-11-20T09:24:29;100946.03;;;-0.00;58.88
60845;BME280;47984;51.250;6.712;2022-11-20T09:26:56;100944.38;;;0.02;59.08
60845;BME280;47984;51.250;6.712;2022-11-20T09:29:23;100941.84;;;0.05;59.02
60845;BME280;47984;51.250;6.712;2022-11-20T09:31:50;100941.91;;;0.08;59.21
60845;BME280;47984;51.250;6.712;2022-11-20T09:34:17;100935.94;;;0.08;59.52
60845;BME280;47984;51.250;6.712;2022-11-20T09:36:44;100934.31;;;0.13;59.13
60845;BME280;47984;51.250;6.712;2022-11-20T09:39:11;100935.19;;;0.15;59.02
60845;BME280;47984;51.250;6.712;2022-11-20T09:44:40;100933.59;;;0.21;59.02
60845;BME280;47984;51.250;6.712;2022-11-20T09:55:40;100938.84;;;0.31;59.36
60845;BME280;47984;51.250;6.712;2022-11-20T10:00:51;100941.56;;;0.38;59.26
60845;BME280;47984;51.250;6.712;2022-11-20T10:04:13;100945.78;;;0.38;59.35
60845;BME280;47984;51.250;6.712;2022-11-20T10:06:16;100948.44;;;0.42;58.82
60845;BME280;47984;51.250;6.712;2022-11-20T10:23:15;100911.09;;;0.55;59.17
60845;BME280;47984;51.250;6.712;2022-11-20T10:26:11;100911.19;;;0.61;59.20
60845;BME280;47984;51.250;6.712;2022-11-20T10:31:33;100893.31;;;0.64;59.50
60845;BME280;47984;51.250;6.712;2022-11-20T10:36:55;100895.06;;;0.68;58.88
60845;BME280;47984;51.250;6.712;2022-11-20T10:40:17;100885.75;;;0.72;59.07
60845;BME280;47984;51.250;6.712;2022-11-20T10:43:08;100879.78;;;0.75;59.30
60845;BME280;47984;51.250;6.712;2022-11-20T10:45:57;100881.53;;;0.76;59.22
60845;BME280;47984;51.250;6.712;2022-11-20T10:48:27;100882.38;;;0.78;58.96
60845;BME280;47984;51.250;6.712;2022-11-20T10:51:03;100876.44;;;0.79;59.14
60845;BME280;47984;51.250;6.712;2022-11-20T10:56:12;100869.66;;;0.84;59.47
60845;BME280;47984;51.250;6.712;2022-11-20T11:01:28;100856.03;;;0.86;59.50
60845;BME280;47984;51.250;6.712;2022-11-20T11:03:55;100850.97;;;0.89;58.80
60845;BME280;47984;51.250;6.712;2022-11-20T11:06:27;100848.44;;;0.91;59.57
60845;BME280;47984;51.250;6.712;2022-11-20T11:08:59;100845.06;;;0.95;59.24
60845;BME280;47984;51.250;6.712;2022-11-20T11:11:33;100837.38;;;0.97;59.48
60845;BME280;47984;51.250;6.712;2022-11-20T11:14:07;100836.56;;;0.98;58.94
60845;BME280;47984;51.250;6.712;2022-11-20T11:16:34;100834.88;;;1.01;59.33
60845;BME280;47984;51.250;6.712;2022-11-20T11:19:06;100828.06;;;1.02;59.11
60845;BME280;47984;51.250;6.712;2022-11-20T11:21:34;100823.81;;;1.05;58.72
60845;BME280;47984;51.250;6.712;2022-11-20T11:24:03;100823.84;;;1.07;59.56
60845;BME280;47984;51.250;6.712;2022-11-20T11:27:02;100818.75;;;1.08;59.32
60845;BME280;47984;51.250;6.712;2022-11-20T11:29:31;100811.09;;;1.10;59.42
60845;BME280;47984;51.250;6.712;2022-11-20T11:32:17;100804.25;;;1.12;59.08
60845;BME280;47984;51.250;6.712;2022-11-20T11:34:59;100799.16;;;1.13;59.63
60845;BME280;47984;51.250;6.712;2022-11-20T11:37:37;100795.75;;;1.14;59.39
60845;BME280;47984;51.250;6.712;2022-11-20T11:40:09;100789.81;;;1.15;59.11
60845;BME280;47984;51.250;6.712;2022-11-20T11:42:58;100788.13;;;1.19;58.88
60845;BME280;47984;51.250;6.712;2022-11-20T11:45:26;100778.69;;;1.18;59.34
60845;BME280;47984;51.250;6.712;2022-11-20T11:47:56;100777.88;;;1.21;59.06
60845;BME280;47984;51.250;6.712;2022-11-20T11:50:29;100769.41;;;1.25;59.56
60845;BME280;47984;51.250;6.712;2022-11-20T11:53:13;100765.97;;;1.26;59.29
60845;BME280;47984;51.250;6.712;2022-11-20T11:58:39;100751.50;;;1.29;59.10
60845;BME280;47984;51.250;6.712;2022-11-20T12:03:38;100754.09;;;1.34;58.81
60845;BME280;47984;51.250;6.712;2022-11-20T12:06:17;100750.69;;;1.35;59.51
60845;BME280;47984;51.250;6.712;2022-11-20T12:08:51;100745.59;;;1.38;59.51
60845;BME280;47984;51.250;6.712;2022-11-20T12:11:30;100744.75;;;1.39;58.92
60845;BME280;47984;51.250;6.712;2022-11-20T12:14:27;100742.22;;;1.42;59.47
60845;BME280;47984;51.250;6.712;2022-11-20T12:16:57;100736.22;;;1.42;59.27
60845;BME280;47984;51.250;6.712;2022-11-20T12:19:24;100725.16;;;1.44;59.21
60845;BME280;47984;51.250;6.712;2022-11-20T12:24:39;100731.16;;;1.49;58.79
60845;BME280;47984;51.250;6.712;2022-11-20T12:27:50;100729.47;;;1.51;58.88
60845;BME280;47984;51.250;6.712;2022-11-20T12:30:20;100728.63;;;1.54;59.05
60845;BME280;47984;51.250;6.712;2022-11-20T12:36:07;100717.56;;;1.58;58.81
60845;BME280;47984;51.250;6.712;2022-11-20T12:44:26;100707.38;;;1.66;59.38
60845;BME280;47984;51.250;6.712;2022-11-20T12:47:20;100707.38;;;1.69;58.61
60845;BME280;47984;51.250;6.712;2022-11-20T12:50:03;100699.69;;;1.70;59.10
60845;BME280;47984;51.250;6.712;2022-11-20T12:55:32;100688.63;;;1.76;59.21
60845;BME280;47984;51.250;6.712;2022-11-20T13:01:42;100680.97;;;1.80;59.51
60845;BME280;47984;51.250;6.712;2022-11-20T13:06:44;100666.44;;;1.82;59.08
60845;BME280;47984;51.250;6.712;2022-11-20T13:09:15;100659.63;;;1.84;59.48
60845;BME280;47984;51.250;6.712;2022-11-20T13:14:58;100635.69;;;1.84;59.23
60845;BME280;47984;51.250;6.712;2022-11-20T13:18:11;100641.69;;;1.89;59.22
60845;BME280;47984;51.250;6.712;2022-11-20T13:20:19;100631.44;;;1.91;59.44
60845;BME280;47984;51.250;6.712;2022-11-20T13:22:54;100619.44;;;1.86;59.40
60845;BME280;47984;51.250;6.712;2022-11-20T13:25:33;100616.03;;;1.92;58.97
60845;BME280;47984;51.250;6.712;2022-11-20T13:28:04;100615.19;;;1.92;59.21
60845;BME280;47984;51.250;6.712;2022-11-20T13:30:32;100616.91;;;1.93;58.96
60845;BME280;47984;51.250;6.712;2022-11-20T13:33:32;100612.66;;;1.96;59.32
60845;BME280;47984;51.250;6.712;2022-11-20T13:36:05;100612.66;;;1.96;59.20
60845;BME280;47984;51.250;6.712;2022-11-20T13:39:02;100609.22;;;1.96;58.69
60845;BME280;47984;51.250;6.712;2022-11-20T13:41:38;100609.25;;;1.97;58.84
60845;BME280;47984;51.250;6.712;2022-11-20T13:46:43;100592.16;;;1.99;58.88
60845;BME280;47984;51.250;6.712;2022-11-20T13:49:38;100594.72;;;2.02;58.76
60845;BME280;47984;51.250;6.712;2022-11-20T14:00:26;100568.22;;;2.06;59.02
60845;BME280;47984;51.250;6.712;2022-11-20T14:05:39;100554.53;;;2.07;59.08
60845;BME280;47984;51.250;6.712;2022-11-20T14:08:47;100558.81;;;2.10;59.15
60845;BME280;47984;51.250;6.712;2022-11-20T14:11:20;100549.41;;;2.11;58.95
60845;BME280;47984;51.250;6.712;2022-11-20T14:14:10;100537.47;;;2.09;59.08
60845;BME280;47984;51.250;6.712;2022-11-20T14:16:39;100522.06;;;2.09;59.18
60845;BME280;47984;51.250;6.712;2022-11-20T14:19:29;100522.94;;;2.12;58.96
60845;BME280;47984;51.250;6.712;2022-11-20T14:22:16;100510.09;;;2.12;58.88
60845;BME280;47984;51.250;6.712;2022-11-20T14:24:48;100504.09;;;2.14;59.10
60845;BME280;47984;51.250;6.712;2022-11-20T14:27:19;100510.13;;;2.15;58.82
60845;BME280;47984;51.250;6.712;2022-11-20T14:29:49;100505.84;;;2.15;59.46
60845;BME280;47984;51.250;6.712;2022-11-20T14:32:28;100492.13;;;2.13;59.09
60845;BME280;47984;51.250;6.712;2022-11-20T14:35:06;100502.41;;;2.18;59.50
60845;BME280;47984;51.250;6.712;2022-11-20T14:37:37;100503.28;;;2.18;59.42
60845;BME280;47984;51.250;6.712;2022-11-20T14:40:31;100493.84;;;2.19;58.84